sensor_id;sensor_type;location;lat;lon;timestamp;P1;durP1;ratioP1;P2;durP2;ratioP2
9848;SDS011;4963;51.444;6.528;2022-08-01T00:01:46;6.40;;;5.20;;
9848;SDS011;4963;51.444;6.528;2022-08-01T00:04:13;6.22;;;5.30;;
9848;SDS011;4963;51.444;6.528;2022-08-01T00:06:41;6.93;;;5.70;;
9848;SDS011;4963;51.444;6.528;2022-08-01T00:09:08;6.22;;;5.07;;
9848;SDS011;4963;51.444;6.528;2022-08-01T00:11:35;6.38;;;4.80;;
9848;SDS011;4963;51.444;6.528;2022-08-01T00:14:02;6.60;;;5.15;;
9848;SDS011;4963;51.444;6.528;2022-08-01T00:16:29;8.75;;;5.18;;
9848;SDS011;4963;51.444;6.528;2022-08-01T00:18:56;5.60;;;5.07;;
9848;SDS011;4963;51.444;6.528;2022-08-01T00:21:23;8.82;;;5.50;;
9848;SDS011;4963;51.444;6.528;2022-08-01T00:23:51;7.50;;;5.95;;
9848;SDS011;4963;51.444;6.528;2022-08-01T00:26:18;6.10;;;5.50;;
9848;SDS011;4963;51.444;6.528;2022-08-01T00:28:45;7.78;;;5.00;;
9848;SDS011;4963;51.444;6.528;2022-08-01T00:31:12;7.38;;;6.05;;
9848;SDS011;4963;51.444;6.528;2022-08-01T00:33:39;9.15;;;5.65;;
9848;SDS011;4963;51.444;6.528;2022-08-01T00:36:06;6.18;;;5.35;;
9848;SDS011;4963;51.444;6.528;2022-08-01T00:38:33;8.15;;;5.55;;
9848;SDS011;4963;51.444;6.528;2022-08-01T00:41:01;5.88;;;5.28;;
9848;SDS011;4963;51.444;6.528;2022-08-01T00:43:28;7.55;;;5.97;;
9848;SDS011;4963;51.444;6.528;2022-08-01T00:45:55;8.20;;;5.55;;
9848;SDS011;4963;51.444;6.528;2022-08-01T00:48:22;7.93;;;6.07;;
9848;SDS011;4963;51.444;6.528;2022-08-01T00:50:49;6.70;;;6.10;;
9848;SDS011;4963;51.444;6.528;2022-08-01T00:53:16;8.57;;;6.18;;
9848;SDS011;4963;51.444;6.528;2022-08-01T00:55:43;7.35;;;5.15;;
9848;SDS011;4963;51.444;6.528;2022-08-01T00:58:11;9.32;;;5.75;;
9848;SDS011;4963;51.444;6.528;2022-08-01T01:00:38;6.40;;;5.65;;
9848;SDS011;4963;51.444;6.528;2022-08-01T01:03:05;8.50;;;5.93;;
9848;SDS011;4963;51.444;6.528;2022-08-01T01:05:33;9.30;;;6.13;;
9848;SDS011;4963;51.444;6.528;2022-08-01T01:08:07;7.47;;;5.93;;
9848;SDS011;4963;51.444;6.528;2022-08-01T01:10:40;8.25;;;6.55;;
9848;SDS011;4963;51.444;6.528;2022-08-01T01:13:13;8.15;;;5.97;;
9848;SDS011;4963;51.444;6.528;2022-08-01T01:15:46;8.27;;;6.10;;
9848;SDS011;4963;51.444;6.528;2022-08-01T01:18:18;6.47;;;5.88;;
9848;SDS011;4963;51.444;6.528;2022-08-01T01:20:52;7.22;;;6.53;;
9848;SDS011;4963;51.444;6.528;2022-08-01T01:23:33;7.10;;;6.40;;
9848;SDS011;4963;51.444;6.528;2022-08-01T01:26:17;8.77;;;6.05;;
9848;SDS011;4963;51.444;6.528;2022-08-01T01:29:00;8.15;;;6.07;;
9848;SDS011;4963;51.444;6.528;2022-08-01T01:31:32;8.65;;;6.53;;
9848;SDS011;4963;51.444;6.528;2022-08-01T01:34:06;8.98;;;6.93;;
9848;SDS011;4963;51.444;6.528;2022-08-01T01:36:35;8.80;;;6.13;;
9848;SDS011;4963;51.444;6.528;2022-08-01T01:39:04;7.03;;;6.32;;
9848;SDS011;4963;51.444;6.528;2022-08-01T01:41:32;10.65;;;6.97;;
9848;SDS011;4963;51.444;6.528;2022-08-01T01:44:03;10.73;;;7.15;;
9848;SDS011;4963;51.444;6.528;2022-08-01T01:46:31;10.63;;;6.85;;
9848;SDS011;4963;51.444;6.528;2022-08-01T01:48:58;10.63;;;7.13;;
9848;SDS011;4963;51.444;6.528;2022-08-01T01:51:27;8.90;;;6.90;;
9848;SDS011;4963;51.444;6.528;2022-08-01T01:53:56;11.23;;;8.32;;
9848;SDS011;4963;51.444;6.528;2022-08-01T01:56:24;7.32;;;6.10;;
9848;SDS011;4963;51.444;6.528;2022-08-01T01:58:56;8.40;;;6.57;;
9848;SDS011;4963;51.444;6.528;2022-08-01T02:01:28;10.05;;;8.07;;
9848;SDS011;4963;51.444;6.528;2022-08-01T02:03:57;10.82;;;7.60;;
9848;SDS011;4963;51.444;6.528;2022-08-01T02:06:27;9.48;;;7.45;;
9848;SDS011;4963;51.444;6.528;2022-08-01T02:08:55;9.98;;;8.05;;
9848;SDS011;4963;51.444;6.528;2022-08-01T02:11:23;11.93;;;8.10;;
9848;SDS011;4963;51.444;6.528;2022-08-01T02:13:52;11.50;;;8.98;;
9848;SDS011;4963;51.444;6.528;2022-08-01T02:16:22;14.45;;;9.00;;
9848;SDS011;4963;51.444;6.528;2022-08-01T02:18:53;10.25;;;8.23;;
9848;SDS011;4963;51.444;6.528;2022-08-01T02:21:23;11.30;;;8.15;;
9848;SDS011;4963;51.444;6.528;2022-08-01T02:23:53;8.90;;;8.10;;
9848;SDS011;4963;51.444;6.528;2022-08-01T02:26:26;11.13;;;7.82;;
9848;SDS011;4963;51.444;6.528;2022-08-01T02:28:56;10.25;;;8.38;;
9848;SDS011;4963;51.444;6.528;2022-08-01T02:31:25;10.65;;;8.55;;
9848;SDS011;4963;51.444;6.528;2022-08-01T02:33:57;9.88;;;8.15;;
9848;SDS011;4963;51.444;6.528;2022-08-01T02:36:31;11.35;;;8.40;;
9848;SDS011;4963;51.444;6.528;2022-08-01T02:39:02;11.05;;;8.63;;
9848;SDS011;4963;51.444;6.528;2022-08-01T02:41:32;14.65;;;10.40;;
9848;SDS011;4963;51.444;6.528;2022-08-01T02:44:03;11.98;;;9.27;;
9848;SDS011;4963;51.444;6.528;2022-08-01T02:46:34;12.88;;;10.13;;
9848;SDS011;4963;51.444;6.528;2022-08-01T02:49:04;11.90;;;9.73;;
9848;SDS011;4963;51.444;6.528;2022-08-01T02:51:35;13.90;;;10.73;;
9848;SDS011;4963;51.444;6.528;2022-08-01T02:54:03;15.13;;;10.60;;
9848;SDS011;4963;51.444;6.528;2022-08-01T02:56:33;12.80;;;10.52;;
9848;SDS011;4963;51.444;6.528;2022-08-01T02:59:02;14.60;;;10.70;;
9848;SDS011;4963;51.444;6.528;2022-08-01T03:01:31;14.52;;;10.48;;
9848;SDS011;4963;51.444;6.528;2022-08-01T03:04:00;12.70;;;9.48;;
9848;SDS011;4963;51.444;6.528;2022-08-01T03:06:29;17.45;;;11.05;;
9848;SDS011;4963;51.444;6.528;2022-08-01T03:08:57;11.32;;;9.82;;
9848;SDS011;4963;51.444;6.528;2022-08-01T03:11:26;16.67;;;11.25;;
9848;SDS011;4963;51.444;6.528;2022-08-01T03:13:55;16.02;;;10.02;;
9848;SDS011;4963;51.444;6.528;2022-08-01T03:16:23;14.63;;;10.95;;
9848;SDS011;4963;51.444;6.528;2022-08-01T03:18:51;13.80;;;9.68;;
9848;SDS011;4963;51.444;6.528;2022-08-01T03:21:21;13.70;;;10.38;;
9848;SDS011;4963;51.444;6.528;2022-08-01T03:23:51;16.00;;;9.77;;
9848;SDS011;4963;51.444;6.528;2022-08-01T03:26:22;10.43;;;9.07;;
9848;SDS011;4963;51.444;6.528;2022-08-01T03:28:52;13.85;;;10.63;;
9848;SDS011;4963;51.444;6.528;2022-08-01T03:31:23;11.90;;;10.30;;
9848;SDS011;4963;51.444;6.528;2022-08-01T03:33:51;11.43;;;10.23;;
9848;SDS011;4963;51.444;6.528;2022-08-01T03:36:18;10.07;;;9.00;;
9848;SDS011;4963;51.444;6.528;2022-08-01T03:38:51;11.77;;;10.10;;
9848;SDS011;4963;51.444;6.528;2022-08-01T03:41:21;12.70;;;10.63;;
9848;SDS011;4963;51.444;6.528;2022-08-01T03:43:54;12.50;;;11.20;;
9848;SDS011;4963;51.444;6.528;2022-08-01T03:46:26;11.98;;;10.55;;
9848;SDS011;4963;51.444;6.528;2022-08-01T03:49:00;14.18;;;10.68;;
9848;SDS011;4963;51.444;6.528;2022-08-01T03:51:31;12.88;;;10.73;;
9848;SDS011;4963;51.444;6.528;2022-08-01T03:54:00;11.25;;;10.10;;
9848;SDS011;4963;51.444;6.528;2022-08-01T03:56:29;12.43;;;10.07;;
9848;SDS011;4963;51.444;6.528;2022-08-01T03:58:58;10.27;;;9.18;;
9848;SDS011;4963;51.444;6.528;2022-08-01T04:01:26;12.07;;;9.45;;
9848;SDS011;4963;51.444;6.528;2022-08-01T04:03:55;12.35;;;9.93;;
9848;SDS011;4963;51.444;6.528;2022-08-01T04:06:22;11.30;;;9.55;;
9848;SDS011;4963;51.444;6.528;2022-08-01T04:08:49;11.77;;;10.07;;
9848;SDS011;4963;51.444;6.528;2022-08-01T04:11:23;14.20;;;10.60;;
9848;SDS011;4963;51.444;6.528;2022-08-01T04:13:52;13.23;;;10.82;;
9848;SDS011;4963;51.444;6.528;2022-08-01T04:16:20;12.43;;;10.70;;
9848;SDS011;4963;51.444;6.528;2022-08-01T04:18:48;11.18;;;9.90;;
9848;SDS011;4963;51.444;6.528;2022-08-01T04:21:15;11.73;;;10.45;;
9848;SDS011;4963;51.444;6.528;2022-08-01T04:23:46;12.35;;;10.38;;
9848;SDS011;4963;51.444;6.528;2022-08-01T04:26:13;11.32;;;9.63;;
9848;SDS011;4963;51.444;6.528;2022-08-01T04:28:43;13.10;;;9.57;;
9848;SDS011;4963;51.444;6.528;2022-08-01T04:31:11;14.43;;;10.15;;
9848;SDS011;4963;51.444;6.528;2022-08-01T04:33:40;11.18;;;9.90;;
9848;SDS011;4963;51.444;6.528;2022-08-01T04:36:12;11.65;;;10.45;;
9848;SDS011;4963;51.444;6.528;2022-08-01T04:38:42;11.45;;;9.70;;
9848;SDS011;4963;51.444;6.528;2022-08-01T04:41:12;11.35;;;9.55;;
9848;SDS011;4963;51.444;6.528;2022-08-01T04:43:40;10.77;;;9.43;;
9848;SDS011;4963;51.444;6.528;2022-08-01T04:46:08;12.25;;;9.98;;
9848;SDS011;4963;51.444;6.528;2022-08-01T04:48:37;11.95;;;9.38;;
9848;SDS011;4963;51.444;6.528;2022-08-01T04:51:09;11.32;;;9.32;;
9848;SDS011;4963;51.444;6.528;2022-08-01T04:53:41;14.55;;;10.07;;
9848;SDS011;4963;51.444;6.528;2022-08-01T04:56:08;14.75;;;10.52;;
9848;SDS011;4963;51.444;6.528;2022-08-01T04:58:37;11.80;;;9.93;;
9848;SDS011;4963;51.444;6.528;2022-08-01T05:01:05;10.90;;;9.45;;
9848;SDS011;4963;51.444;6.528;2022-08-01T05:03:34;13.60;;;9.43;;
9848;SDS011;4963;51.444;6.528;2022-08-01T05:06:01;10.82;;;9.32;;
9848;SDS011;4963;51.444;6.528;2022-08-01T05:08:28;10.23;;;9.15;;
9848;SDS011;4963;51.444;6.528;2022-08-01T05:10:54;12.40;;;10.05;;
9848;SDS011;4963;51.444;6.528;2022-08-01T05:13:21;10.88;;;9.20;;
9848;SDS011;4963;51.444;6.528;2022-08-01T05:15:48;11.98;;;8.75;;
9848;SDS011;4963;51.444;6.528;2022-08-01T05:18:15;11.82;;;9.85;;
9848;SDS011;4963;51.444;6.528;2022-08-01T05:20:43;13.45;;;10.80;;
9848;SDS011;4963;51.444;6.528;2022-08-01T05:23:10;11.88;;;10.32;;
9848;SDS011;4963;51.444;6.528;2022-08-01T05:25:37;12.35;;;10.25;;
9848;SDS011;4963;51.444;6.528;2022-08-01T05:28:04;11.35;;;9.50;;
9848;SDS011;4963;51.444;6.528;2022-08-01T05:30:31;12.05;;;10.38;;
9848;SDS011;4963;51.444;6.528;2022-08-01T05:32:58;11.65;;;9.48;;
9848;SDS011;4963;51.444;6.528;2022-08-01T05:35:25;10.35;;;8.68;;
9848;SDS011;4963;51.444;6.528;2022-08-01T05:37:53;9.30;;;8.35;;
9848;SDS011;4963;51.444;6.528;2022-08-01T05:40:20;11.85;;;9.48;;
9848;SDS011;4963;51.444;6.528;2022-08-01T05:42:47;11.38;;;8.75;;
9848;SDS011;4963;51.444;6.528;2022-08-01T05:45:14;9.65;;;8.50;;
9848;SDS011;4963;51.444;6.528;2022-08-01T05:47:41;8.50;;;7.60;;
9848;SDS011;4963;51.444;6.528;2022-08-01T05:50:08;8.88;;;7.85;;
9848;SDS011;4963;51.444;6.528;2022-08-01T05:52:35;7.85;;;6.35;;
9848;SDS011;4963;51.444;6.528;2022-08-01T05:55:04;8.98;;;7.22;;
9848;SDS011;4963;51.444;6.528;2022-08-01T05:57:31;7.80;;;6.80;;
9848;SDS011;4963;51.444;6.528;2022-08-01T05:59:58;8.32;;;6.45;;
9848;SDS011;4963;51.444;6.528;2022-08-01T06:02:25;7.72;;;6.85;;
9848;SDS011;4963;51.444;6.528;2022-08-01T06:04:52;7.60;;;6.35;;
9848;SDS011;4963;51.444;6.528;2022-08-01T06:07:19;6.55;;;5.60;;
9848;SDS011;4963;51.444;6.528;2022-08-01T06:09:46;8.82;;;6.45;;
9848;SDS011;4963;51.444;6.528;2022-08-01T06:12:14;6.72;;;5.65;;
9848;SDS011;4963;51.444;6.528;2022-08-01T06:14:41;7.20;;;5.50;;
9848;SDS011;4963;51.444;6.528;2022-08-01T06:17:08;7.35;;;6.45;;
9848;SDS011;4963;51.444;6.528;2022-08-01T06:19:35;7.30;;;5.45;;
9848;SDS011;4963;51.444;6.528;2022-08-01T06:22:02;6.80;;;5.80;;
9848;SDS011;4963;51.444;6.528;2022-08-01T06:24:29;7.57;;;5.88;;
9848;SDS011;4963;51.444;6.528;2022-08-01T06:26:55;6.00;;;5.40;;
9848;SDS011;4963;51.444;6.528;2022-08-01T06:29:24;6.45;;;5.43;;
9848;SDS011;4963;51.444;6.528;2022-08-01T06:31:51;7.28;;;5.00;;
9848;SDS011;4963;51.444;6.528;2022-08-01T06:34:17;8.82;;;6.43;;
9848;SDS011;4963;51.444;6.528;2022-08-01T06:36:45;11.13;;;6.15;;
9848;SDS011;4963;51.444;6.528;2022-08-01T06:39:12;7.07;;;5.45;;
9848;SDS011;4963;51.444;6.528;2022-08-01T06:41:39;6.82;;;5.00;;
9848;SDS011;4963;51.444;6.528;2022-08-01T06:44:07;6.53;;;5.85;;
9848;SDS011;4963;51.444;6.528;2022-08-01T06:46:35;5.85;;;5.25;;
9848;SDS011;4963;51.444;6.528;2022-08-01T06:49:02;7.85;;;6.03;;
9848;SDS011;4963;51.444;6.528;2022-08-01T06:51:29;6.97;;;5.28;;
9848;SDS011;4963;51.444;6.528;2022-08-01T06:53:56;6.07;;;5.40;;
9848;SDS011;4963;51.444;6.528;2022-08-01T06:56:23;6.88;;;5.10;;
9848;SDS011;4963;51.444;6.528;2022-08-01T06:58:50;6.28;;;5.13;;
9848;SDS011;4963;51.444;6.528;2022-08-01T07:01:17;6.65;;;5.45;;
9848;SDS011;4963;51.444;6.528;2022-08-01T07:03:45;8.35;;;5.38;;
9848;SDS011;4963;51.444;6.528;2022-08-01T07:06:12;6.72;;;5.10;;
9848;SDS011;4963;51.444;6.528;2022-08-01T07:08:40;5.07;;;4.45;;
9848;SDS011;4963;51.444;6.528;2022-08-01T07:11:07;5.10;;;4.60;;
9848;SDS011;4963;51.444;6.528;2022-08-01T07:13:33;6.90;;;4.38;;
9848;SDS011;4963;51.444;6.528;2022-08-01T07:16:00;6.38;;;4.35;;
9848;SDS011;4963;51.444;6.528;2022-08-01T07:18:27;5.80;;;5.00;;
9848;SDS011;4963;51.444;6.528;2022-08-01T07:20:55;7.75;;;6.95;;
9848;SDS011;4963;51.444;6.528;2022-08-01T07:23:22;8.88;;;7.97;;
9848;SDS011;4963;51.444;6.528;2022-08-01T07:25:49;10.82;;;8.68;;
9848;SDS011;4963;51.444;6.528;2022-08-01T07:28:17;12.35;;;7.97;;
9848;SDS011;4963;51.444;6.528;2022-08-01T07:30:44;9.27;;;8.10;;
9848;SDS011;4963;51.444;6.528;2022-08-01T07:33:11;8.38;;;6.55;;
9848;SDS011;4963;51.444;6.528;2022-08-01T07:35:38;7.65;;;6.50;;
9848;SDS011;4963;51.444;6.528;2022-08-01T07:38:06;8.60;;;7.05;;
9848;SDS011;4963;51.444;6.528;2022-08-01T07:40:33;6.80;;;6.07;;
9848;SDS011;4963;51.444;6.528;2022-08-01T07:43:00;9.15;;;6.53;;
9848;SDS011;4963;51.444;6.528;2022-08-01T07:45:27;8.77;;;7.25;;
9848;SDS011;4963;51.444;6.528;2022-08-01T07:47:55;7.60;;;6.85;;
9848;SDS011;4963;51.444;6.528;2022-08-01T07:50:22;7.20;;;6.38;;
9848;SDS011;4963;51.444;6.528;2022-08-01T07:52:49;8.30;;;5.63;;
9848;SDS011;4963;51.444;6.528;2022-08-01T07:55:17;7.68;;;5.28;;
9848;SDS011;4963;51.444;6.528;2022-08-01T07:57:44;8.18;;;5.53;;
9848;SDS011;4963;51.444;6.528;2022-08-01T08:00:11;4.15;;;3.75;;
9848;SDS011;4963;51.444;6.528;2022-08-01T08:02:38;4.05;;;3.22;;
9848;SDS011;4963;51.444;6.528;2022-08-01T08:05:06;3.53;;;2.75;;
9848;SDS011;4963;51.444;6.528;2022-08-01T08:07:33;4.85;;;2.85;;
9848;SDS011;4963;51.444;6.528;2022-08-01T08:10:00;3.67;;;3.28;;
9848;SDS011;4963;51.444;6.528;2022-08-01T08:12:28;3.30;;;2.58;;
9848;SDS011;4963;51.444;6.528;2022-08-01T08:14:55;4.03;;;3.20;;
9848;SDS011;4963;51.444;6.528;2022-08-01T08:17:24;3.45;;;2.90;;
9848;SDS011;4963;51.444;6.528;2022-08-01T08:19:51;3.65;;;2.67;;
9848;SDS011;4963;51.444;6.528;2022-08-01T08:22:18;3.03;;;2.72;;
9848;SDS011;4963;51.444;6.528;2022-08-01T08:24:45;4.15;;;2.72;;
9848;SDS011;4963;51.444;6.528;2022-08-01T08:27:12;3.40;;;2.75;;
9848;SDS011;4963;51.444;6.528;2022-08-01T08:29:41;6.95;;;3.17;;
9848;SDS011;4963;51.444;6.528;2022-08-01T08:32:08;3.00;;;2.58;;
9848;SDS011;4963;51.444;6.528;2022-08-01T08:34:35;4.47;;;2.95;;
9848;SDS011;4963;51.444;6.528;2022-08-01T08:37:02;4.10;;;3.05;;
9848;SDS011;4963;51.444;6.528;2022-08-01T08:39:29;3.95;;;3.35;;
9848;SDS011;4963;51.444;6.528;2022-08-01T08:42:00;3.40;;;3.10;;
9848;SDS011;4963;51.444;6.528;2022-08-01T08:44:27;4.53;;;3.00;;
9848;SDS011;4963;51.444;6.528;2022-08-01T08:46:56;4.15;;;3.03;;
9848;SDS011;4963;51.444;6.528;2022-08-01T08:49:27;3.63;;;2.50;;
9848;SDS011;4963;51.444;6.528;2022-08-01T08:51:57;3.90;;;3.10;;
9848;SDS011;4963;51.444;6.528;2022-08-01T08:54:25;3.97;;;2.75;;
9848;SDS011;4963;51.444;6.528;2022-08-01T08:56:54;4.57;;;2.25;;
9848;SDS011;4963;51.444;6.528;2022-08-01T08:59:22;3.78;;;2.50;;
9848;SDS011;4963;51.444;6.528;2022-08-01T09:01:50;3.20;;;2.90;;
9848;SDS011;4963;51.444;6.528;2022-08-01T09:04:18;3.00;;;2.70;;
9848;SDS011;4963;51.444;6.528;2022-08-01T09:06:47;2.92;;;2.60;;
9848;SDS011;4963;51.444;6.528;2022-08-01T09:09:14;4.45;;;3.75;;
9848;SDS011;4963;51.444;6.528;2022-08-01T09:11:41;4.38;;;2.80;;
9848;SDS011;4963;51.444;6.528;2022-08-01T09:14:09;2.92;;;2.63;;
9848;SDS011;4963;51.444;6.528;2022-08-01T09:16:39;3.17;;;2.95;;
9848;SDS011;4963;51.444;6.528;2022-08-01T09:19:08;3.10;;;2.80;;
9848;SDS011;4963;51.444;6.528;2022-08-01T09:21:38;3.55;;;2.78;;
9848;SDS011;4963;51.444;6.528;2022-08-01T09:24:12;3.45;;;3.05;;
9848;SDS011;4963;51.444;6.528;2022-08-01T09:26:42;4.20;;;3.50;;
9848;SDS011;4963;51.444;6.528;2022-08-01T09:29:19;4.18;;;3.35;;
9848;SDS011;4963;51.444;6.528;2022-08-01T09:31:47;3.30;;;3.00;;
9848;SDS011;4963;51.444;6.528;2022-08-01T09:34:15;3.00;;;2.70;;
9848;SDS011;4963;51.444;6.528;2022-08-01T09:36:52;3.30;;;3.00;;
9848;SDS011;4963;51.444;6.528;2022-08-01T09:39:21;2.90;;;2.60;;
9848;SDS011;4963;51.444;6.528;2022-08-01T09:41:49;2.85;;;2.45;;
9848;SDS011;4963;51.444;6.528;2022-08-01T09:44:17;3.22;;;2.15;;
9848;SDS011;4963;51.444;6.528;2022-08-01T09:46:52;2.33;;;2.03;;
9848;SDS011;4963;51.444;6.528;2022-08-01T09:49:26;1.90;;;1.70;;
9848;SDS011;4963;51.444;6.528;2022-08-01T09:51:56;3.40;;;2.00;;
9848;SDS011;4963;51.444;6.528;2022-08-01T09:54:28;2.70;;;2.15;;
9848;SDS011;4963;51.444;6.528;2022-08-01T09:57:06;2.03;;;1.83;;
9848;SDS011;4963;51.444;6.528;2022-08-01T09:59:35;2.35;;;2.10;;
9848;SDS011;4963;51.444;6.528;2022-08-01T10:02:05;2.45;;;2.00;;
9848;SDS011;4963;51.444;6.528;2022-08-01T10:04:32;2.30;;;2.10;;
9848;SDS011;4963;51.444;6.528;2022-08-01T10:07:05;2.42;;;2.00;;
9848;SDS011;4963;51.444;6.528;2022-08-01T10:09:33;6.43;;;2.20;;
9848;SDS011;4963;51.444;6.528;2022-08-01T10:12:02;2.42;;;1.92;;
9848;SDS011;4963;51.444;6.528;2022-08-01T10:14:30;2.85;;;2.05;;
9848;SDS011;4963;51.444;6.528;2022-08-01T10:16:58;2.08;;;1.88;;
9848;SDS011;4963;51.444;6.528;2022-08-01T10:19:27;2.00;;;1.80;;
9848;SDS011;4963;51.444;6.528;2022-08-01T10:21:56;2.92;;;2.00;;
9848;SDS011;4963;51.444;6.528;2022-08-01T10:24:25;2.25;;;2.05;;
9848;SDS011;4963;51.444;6.528;2022-08-01T10:26:55;2.50;;;2.30;;
9848;SDS011;4963;51.444;6.528;2022-08-01T10:29:28;1.20;;;1.10;;
9848;SDS011;4963;51.444;6.528;2022-08-01T10:32:01;1.38;;;1.17;;
9848;SDS011;4963;51.444;6.528;2022-08-01T10:34:30;1.55;;;1.40;;
9848;SDS011;4963;51.444;6.528;2022-08-01T10:36:59;2.55;;;1.30;;
9848;SDS011;4963;51.444;6.528;2022-08-01T10:39:28;4.07;;;1.50;;
9848;SDS011;4963;51.444;6.528;2022-08-01T10:41:56;1.52;;;1.27;;
9848;SDS011;4963;51.444;6.528;2022-08-01T10:44:23;1.30;;;1.20;;
9848;SDS011;4963;51.444;6.528;2022-08-01T10:46:54;1.52;;;1.23;;
9848;SDS011;4963;51.444;6.528;2022-08-01T10:49:26;3.38;;;1.40;;
9848;SDS011;4963;51.444;6.528;2022-08-01T10:51:56;1.33;;;1.20;;
9848;SDS011;4963;51.444;6.528;2022-08-01T10:54:24;1.50;;;1.40;;
9848;SDS011;4963;51.444;6.528;2022-08-01T10:56:53;2.30;;;1.38;;
9848;SDS011;4963;51.444;6.528;2022-08-01T10:59:21;1.35;;;1.25;;
9848;SDS011;4963;51.444;6.528;2022-08-01T11:01:57;1.70;;;1.50;;
9848;SDS011;4963;51.444;6.528;2022-08-01T11:04:33;3.08;;;1.58;;
9848;SDS011;4963;51.444;6.528;2022-08-01T11:07:11;1.60;;;1.38;;
9848;SDS011;4963;51.444;6.528;2022-08-01T11:09:43;1.50;;;1.40;;
9848;SDS011;4963;51.444;6.528;2022-08-01T11:12:14;2.42;;;1.45;;
9848;SDS011;4963;51.444;6.528;2022-08-01T11:17:52;1.52;;;1.13;;
9848;SDS011;4963;51.444;6.528;2022-08-01T11:20:21;1.48;;;1.08;;
9848;SDS011;4963;51.444;6.528;2022-08-01T11:26:08;1.23;;;1.05;;
9848;SDS011;4963;51.444;6.528;2022-08-01T11:28:37;1.50;;;1.30;;
9848;SDS011;4963;51.444;6.528;2022-08-01T11:33:51;1.85;;;1.50;;
9848;SDS011;4963;51.444;6.528;2022-08-01T11:36:18;1.80;;;1.30;;
9848;SDS011;4963;51.444;6.528;2022-08-01T11:38:47;1.85;;;1.45;;
9848;SDS011;4963;51.444;6.528;2022-08-01T11:41:16;4.47;;;1.52;;
9848;SDS011;4963;51.444;6.528;2022-08-01T11:43:56;2.38;;;1.60;;
9848;SDS011;4963;51.444;6.528;2022-08-01T11:49:31;2.35;;;1.40;;
9848;SDS011;4963;51.444;6.528;2022-08-01T11:52:12;1.80;;;1.48;;
9848;SDS011;4963;51.444;6.528;2022-08-01T11:54:41;2.00;;;1.73;;
9848;SDS011;4963;51.444;6.528;2022-08-01T11:57:09;1.50;;;1.38;;
9848;SDS011;4963;51.444;6.528;2022-08-01T11:59:40;1.33;;;1.20;;
9848;SDS011;4963;51.444;6.528;2022-08-01T12:04:57;1.60;;;1.23;;
9848;SDS011;4963;51.444;6.528;2022-08-01T12:07:26;1.40;;;1.30;;
9848;SDS011;4963;51.444;6.528;2022-08-01T12:09:58;1.40;;;1.30;;
9848;SDS011;4963;51.444;6.528;2022-08-01T12:12:26;1.88;;;1.58;;
9848;SDS011;4963;51.444;6.528;2022-08-01T12:14:56;5.70;;;1.48;;
9848;SDS011;4963;51.444;6.528;2022-08-01T12:17:33;1.95;;;1.45;;
9848;SDS011;4963;51.444;6.528;2022-08-01T12:20:02;2.05;;;1.67;;
9848;SDS011;4963;51.444;6.528;2022-08-01T12:22:31;1.75;;;1.55;;
9848;SDS011;4963;51.444;6.528;2022-08-01T12:25:04;3.65;;;1.50;;
9848;SDS011;4963;51.444;6.528;2022-08-01T12:27:33;1.83;;;1.50;;
9848;SDS011;4963;51.444;6.528;2022-08-01T12:30:01;1.58;;;1.33;;
9848;SDS011;4963;51.444;6.528;2022-08-01T12:32:33;1.85;;;1.23;;
9848;SDS011;4963;51.444;6.528;2022-08-01T12:35:02;2.20;;;1.50;;
9848;SDS011;4963;51.444;6.528;2022-08-01T12:37:30;2.00;;;1.67;;
9848;SDS011;4963;51.444;6.528;2022-08-01T12:39:58;1.40;;;1.30;;
9848;SDS011;4963;51.444;6.528;2022-08-01T12:42:25;2.10;;;1.30;;
9848;SDS011;4963;51.444;6.528;2022-08-01T12:44:53;1.70;;;1.60;;
9848;SDS011;4963;51.444;6.528;2022-08-01T12:47:22;4.30;;;1.50;;
9848;SDS011;4963;51.444;6.528;2022-08-01T12:49:50;2.20;;;1.70;;
9848;SDS011;4963;51.444;6.528;2022-08-01T12:52:17;3.63;;;1.70;;
9848;SDS011;4963;51.444;6.528;2022-08-01T12:55:00;2.03;;;1.67;;
9848;SDS011;4963;51.444;6.528;2022-08-01T12:57:28;3.17;;;1.77;;
9848;SDS011;4963;51.444;6.528;2022-08-01T13:00:04;2.75;;;1.65;;
9848;SDS011;4963;51.444;6.528;2022-08-01T13:02:34;2.80;;;1.80;;
9848;SDS011;4963;51.444;6.528;2022-08-01T13:05:02;2.55;;;1.67;;
9848;SDS011;4963;51.444;6.528;2022-08-01T13:07:40;3.35;;;1.35;;
9848;SDS011;4963;51.444;6.528;2022-08-01T13:10:10;3.78;;;1.77;;
9848;SDS011;4963;51.444;6.528;2022-08-01T13:12:37;3.85;;;1.33;;
9848;SDS011;4963;51.444;6.528;2022-08-01T13:15:16;3.45;;;1.63;;
9848;SDS011;4963;51.444;6.528;2022-08-01T13:17:45;3.13;;;1.52;;
9848;SDS011;4963;51.444;6.528;2022-08-01T13:20:20;2.25;;;1.63;;
9848;SDS011;4963;51.444;6.528;2022-08-01T13:25:47;2.30;;;1.50;;
9848;SDS011;4963;51.444;6.528;2022-08-01T13:28:16;2.03;;;1.27;;
9848;SDS011;4963;51.444;6.528;2022-08-01T13:30:50;2.40;;;1.50;;
9848;SDS011;4963;51.444;6.528;2022-08-01T13:33:19;3.33;;;1.80;;
9848;SDS011;4963;51.444;6.528;2022-08-01T13:35:47;2.80;;;1.70;;
9848;SDS011;4963;51.444;6.528;2022-08-01T13:38:16;3.17;;;1.90;;
9848;SDS011;4963;51.444;6.528;2022-08-01T13:40:43;3.08;;;1.50;;
9848;SDS011;4963;51.444;6.528;2022-08-01T13:43:10;2.85;;;1.70;;
9848;SDS011;4963;51.444;6.528;2022-08-01T13:45:37;4.38;;;2.00;;
9848;SDS011;4963;51.444;6.528;2022-08-01T13:48:04;4.38;;;2.38;;
9848;SDS011;4963;51.444;6.528;2022-08-01T13:50:33;2.13;;;1.70;;
9848;SDS011;4963;51.444;6.528;2022-08-01T13:53:00;2.13;;;1.52;;
9848;SDS011;4963;51.444;6.528;2022-08-01T13:55:27;3.47;;;1.85;;
9848;SDS011;4963;51.444;6.528;2022-08-01T13:57:54;1.92;;;1.60;;
9848;SDS011;4963;51.444;6.528;2022-08-01T14:00:21;2.72;;;1.38;;
9848;SDS011;4963;51.444;6.528;2022-08-01T14:02:48;3.55;;;1.55;;
9848;SDS011;4963;51.444;6.528;2022-08-01T14:05:15;1.92;;;1.42;;
9848;SDS011;4963;51.444;6.528;2022-08-01T14:07:43;2.92;;;1.50;;
9848;SDS011;4963;51.444;6.528;2022-08-01T14:10:10;2.03;;;1.63;;
9848;SDS011;4963;51.444;6.528;2022-08-01T14:12:37;3.33;;;1.55;;
9848;SDS011;4963;51.444;6.528;2022-08-01T14:15:05;2.10;;;1.48;;
9848;SDS011;4963;51.444;6.528;2022-08-01T14:17:32;1.83;;;1.40;;
9848;SDS011;4963;51.444;6.528;2022-08-01T14:19:59;2.08;;;1.20;;
9848;SDS011;4963;51.444;6.528;2022-08-01T14:22:27;2.33;;;1.38;;
9848;SDS011;4963;51.444;6.528;2022-08-01T14:24:55;1.90;;;1.30;;
9848;SDS011;4963;51.444;6.528;2022-08-01T14:27:22;2.33;;;1.20;;
9848;SDS011;4963;51.444;6.528;2022-08-01T14:29:49;1.40;;;1.20;;
9848;SDS011;4963;51.444;6.528;2022-08-01T14:32:16;1.90;;;1.40;;
9848;SDS011;4963;51.444;6.528;2022-08-01T14:34:43;2.17;;;1.40;;
9848;SDS011;4963;51.444;6.528;2022-08-01T14:37:09;1.20;;;1.10;;
9848;SDS011;4963;51.444;6.528;2022-08-01T14:39:36;1.55;;;1.20;;
9848;SDS011;4963;51.444;6.528;2022-08-01T14:42:05;1.35;;;1.20;;
9848;SDS011;4963;51.444;6.528;2022-08-01T14:44:32;1.60;;;1.27;;
9848;SDS011;4963;51.444;6.528;2022-08-01T14:46:58;2.50;;;1.30;;
9848;SDS011;4963;51.444;6.528;2022-08-01T14:49:25;1.85;;;1.52;;
9848;SDS011;4963;51.444;6.528;2022-08-01T14:51:52;1.67;;;1.30;;
9848;SDS011;4963;51.444;6.528;2022-08-01T14:54:19;2.40;;;1.42;;
9848;SDS011;4963;51.444;6.528;2022-08-01T14:56:46;3.97;;;1.67;;
9848;SDS011;4963;51.444;6.528;2022-08-01T14:59:14;1.70;;;1.40;;
9848;SDS011;4963;51.444;6.528;2022-08-01T15:01:41;2.33;;;1.50;;
9848;SDS011;4963;51.444;6.528;2022-08-01T15:04:08;3.38;;;1.60;;
9848;SDS011;4963;51.444;6.528;2022-08-01T15:06:35;4.45;;;1.80;;
9848;SDS011;4963;51.444;6.528;2022-08-01T15:09:02;2.05;;;1.50;;
9848;SDS011;4963;51.444;6.528;2022-08-01T15:11:29;2.45;;;1.63;;
9848;SDS011;4963;51.444;6.528;2022-08-01T15:13:55;2.53;;;1.52;;
9848;SDS011;4963;51.444;6.528;2022-08-01T15:16:41;1.55;;;1.42;;
9848;SDS011;4963;51.444;6.528;2022-08-01T15:19:08;2.83;;;1.40;;
9848;SDS011;4963;51.444;6.528;2022-08-01T15:21:35;2.08;;;1.60;;
9848;SDS011;4963;51.444;6.528;2022-08-01T15:24:02;3.47;;;1.60;;
9848;SDS011;4963;51.444;6.528;2022-08-01T15:26:29;2.50;;;1.55;;
9848;SDS011;4963;51.444;6.528;2022-08-01T15:28:56;2.42;;;1.30;;
9848;SDS011;4963;51.444;6.528;2022-08-01T15:31:23;2.63;;;1.55;;
9848;SDS011;4963;51.444;6.528;2022-08-01T15:33:51;5.65;;;2.60;;
9848;SDS011;4963;51.444;6.528;2022-08-01T15:36:18;3.53;;;1.83;;
9848;SDS011;4963;51.444;6.528;2022-08-01T15:38:45;1.85;;;1.50;;